createdAt,value
2017-05-22T00:02:16.756Z,15.80
2017-05-22T00:04:43.680Z,15.50
2017-05-22T00:07:10.588Z,15.50
2017-05-22T00:09:38.270Z,15.50
2017-05-22T00:12:05.180Z,14.90
2017-05-22T00:14:32.111Z,14.60
2017-05-22T00:16:59.458Z,14.50
2017-05-22T00:19:26.411Z,14.70
2017-05-22T00:21:53.336Z,14.50
2017-05-22T00:24:20.613Z,14.50
2017-05-22T00:26:47.508Z,14.60
2017-05-22T00:29:14.419Z,14.80
2017-05-22T00:31:41.754Z,14.90
2017-05-22T00:34:08.680Z,14.90
2017-05-22T00:36:35.572Z,15.00
2017-05-22T00:39:02.913Z,15.00
2017-05-22T00:41:29.856Z,15.10
2017-05-22T00:43:57.289Z,15.00
2017-05-22T00:46:24.561Z,14.90
2017-05-22T00:48:51.487Z,14.30
2017-05-22T00:51:18.410Z,14.10
2017-05-22T00:53:45.689Z,14.20
2017-05-22T00:56:12.611Z,14.40
2017-05-22T00:58:39.507Z,14.40
2017-05-22T01:01:06.825Z,14.40
2017-05-22T01:03:33.730Z,14.10
2017-05-22T01:06:00.644Z,14.20
2017-05-22T01:08:27.973Z,14.40
2017-05-22T01:10:54.896Z,14.40
2017-05-22T01:13:21.813Z,14.40
2017-05-22T01:15:49.235Z,14.50
2017-05-22T01:18:16.156Z,14.60
2017-05-22T01:20:43.074Z,14.50
2017-05-22T01:23:10.345Z,14.60
2017-05-22T01:25:37.252Z,14.80
2017-05-22T01:28:04.155Z,14.80
2017-05-22T01:30:31.448Z,14.80
2017-05-22T01:32:58.466Z,14.50
2017-05-22T01:35:25.377Z,14.20
2017-05-22T01:37:52.661Z,14.40
2017-05-22T01:40:19.589Z,14.60
2017-05-22T01:42:46.496Z,14.50
2017-05-22T01:45:13.800Z,14.60
2017-05-22T01:47:40.730Z,14.80
2017-05-22T01:50:07.668Z,14.90
2017-05-22T01:52:34.968Z,14.70
2017-05-22T01:55:01.880Z,14.30
2017-05-22T01:57:28.771Z,14.20
2017-05-22T01:59:56.076Z,14.20
2017-05-22T02:02:22.989Z,14.30
2017-05-22T02:04:49.891Z,14.50
2017-05-22T02:07:18.239Z,14.20
2017-05-22T02:09:45.160Z,14.20
2017-05-22T02:12:12.088Z,14.40
2017-05-22T02:14:39.713Z,14.00
2017-05-22T02:17:06.632Z,14.20
2017-05-22T02:19:34.052Z,14.30
2017-05-22T02:22:01.577Z,14.30
2017-05-22T02:24:28.492Z,14.20
2017-05-22T02:26:55.420Z,14.40
2017-05-22T02:29:22.835Z,14.70
2017-05-22T02:31:49.753Z,14.80
2017-05-22T02:34:16.681Z,14.90
2017-05-22T02:36:43.949Z,14.90
2017-05-22T02:39:10.868Z,15.00
2017-05-22T02:41:37.780Z,15.10
2017-05-22T02:44:05.092Z,15.10
2017-05-22T02:46:31.999Z,14.90
2017-05-22T02:48:58.894Z,14.70
2017-05-22T02:51:26.141Z,14.80
2017-05-22T02:53:53.032Z,14.50
2017-05-22T02:56:19.945Z,14.40
2017-05-22T02:58:47.401Z,14.30
2017-05-22T03:01:14.344Z,14.30
2017-05-22T03:03:41.245Z,14.50
2017-05-22T03:06:08.547Z,14.70
2017-05-22T03:08:35.457Z,14.50
2017-05-22T03:11:02.365Z,14.80
2017-05-22T03:13:29.694Z,15.10
2017-05-22T03:15:56.640Z,15.10
2017-05-22T03:18:23.544Z,14.70
2017-05-22T03:20:50.937Z,14.80
2017-05-22T03:23:17.869Z,14.70
2017-05-22T03:25:44.804Z,14.60
2017-05-22T03:28:12.179Z,14.50
2017-05-22T03:30:39.111Z,14.50
2017-05-22T03:33:06.037Z,14.80
2017-05-22T03:35:33.432Z,14.90
2017-05-22T03:38:00.345Z,14.60
2017-05-22T03:40:27.288Z,14.60
2017-05-22T03:42:54.660Z,14.50
2017-05-22T03:45:21.579Z,14.30
2017-05-22T03:47:48.530Z,14.70
2017-05-22T03:50:15.825Z,14.70
2017-05-22T03:52:42.771Z,14.50
2017-05-22T03:55:09.682Z,14.30
2017-05-22T03:57:37.052Z,14.40
2017-05-22T04:00:03.981Z,14.70
2017-05-22T04:02:30.877Z,14.60
2017-05-22T04:04:58.218Z,14.70
2017-05-22T04:07:25.153Z,14.80
2017-05-22T04:09:52.144Z,14.90
2017-05-22T04:12:19.549Z,14.80
2017-05-22T04:14:46.461Z,14.90
2017-05-22T04:17:13.392Z,15.00
2017-05-22T04:19:40.700Z,15.10
2017-05-22T04:22:07.613Z,15.00
2017-05-22T04:24:34.531Z,15.00
2017-05-22T04:27:01.849Z,14.90
2017-05-22T04:29:28.784Z,14.90
2017-05-22T04:31:55.705Z,15.10
2017-05-22T04:34:22.993Z,15.10
2017-05-22T04:36:49.912Z,15.10
2017-05-22T04:39:16.876Z,15.20
2017-05-22T04:41:44.221Z,15.20
2017-05-22T04:44:11.177Z,15.40
2017-05-22T04:46:38.090Z,15.50
2017-05-22T04:49:05.980Z,15.60
2017-05-22T04:51:32.892Z,15.90
2017-05-22T04:53:59.772Z,16.00
2017-05-22T04:56:27.108Z,15.90
2017-05-22T04:58:54.052Z,15.90
2017-05-22T05:01:20.960Z,15.80
2017-05-22T05:03:48.201Z,15.90
2017-05-22T05:06:15.128Z,15.80
2017-05-22T05:08:42.072Z,16.10
2017-05-22T05:11:09.318Z,16.20
2017-05-22T05:13:36.265Z,16.20
2017-05-22T05:16:03.197Z,16.20
2017-05-22T05:18:30.520Z,16.30
2017-05-22T05:20:57.465Z,16.20
2017-05-22T05:23:24.413Z,16.30
2017-05-22T05:25:52.258Z,16.40
2017-05-22T05:28:19.185Z,16.50
2017-05-22T05:30:46.109Z,16.60
2017-05-22T05:33:13.412Z,16.60
2017-05-22T05:35:40.313Z,16.60
2017-05-22T05:38:07.256Z,16.50
2017-05-22T05:40:34.548Z,16.50
2017-05-22T05:43:01.467Z,16.50
2017-05-22T05:45:28.420Z,16.60
2017-05-22T05:47:56.389Z,16.60
2017-05-22T05:50:23.340Z,16.80
2017-05-22T05:52:50.241Z,16.90
2017-05-22T05:55:17.539Z,17.00
2017-05-22T05:57:44.464Z,17.40
2017-05-22T06:00:11.390Z,17.60
2017-05-22T06:02:38.656Z,17.60
2017-05-22T06:05:05.604Z,17.60
2017-05-22T06:07:32.549Z,17.80
2017-05-22T06:09:59.917Z,17.80
2017-05-22T06:12:26.845Z,17.90
2017-05-22T06:14:53.775Z,18.00
2017-05-22T06:17:21.141Z,18.10
2017-05-22T06:19:48.052Z,18.10
2017-05-22T06:22:14.991Z,18.30
2017-05-22T06:24:42.274Z,18.20
2017-05-22T06:27:09.196Z,18.20
2017-05-22T06:29:36.110Z,18.30
2017-05-22T06:32:03.416Z,18.30
2017-05-22T06:34:30.317Z,18.40
2017-05-22T06:36:57.256Z,18.40
2017-05-22T06:39:24.555Z,18.40
2017-05-22T06:41:51.492Z,18.50
2017-05-22T06:44:18.381Z,18.60
2017-05-22T06:46:45.688Z,18.60
2017-05-22T06:49:12.623Z,18.60
2017-05-22T06:51:39.556Z,18.50
2017-05-22T06:54:06.811Z,18.50
2017-05-22T06:56:33.741Z,18.50
2017-05-22T06:59:00.643Z,18.50
2017-05-22T07:01:28.053Z,18.60
2017-05-22T07:03:54.965Z,18.60
2017-05-22T07:06:21.920Z,18.60
2017-05-22T07:08:49.309Z,18.50
2017-05-22T07:11:16.277Z,18.60
2017-05-22T07:13:43.237Z,18.40
2017-05-22T07:16:10.628Z,18.40
2017-05-22T07:18:37.537Z,18.40
2017-05-22T07:21:04.502Z,18.30
2017-05-22T07:23:31.866Z,18.20
2017-05-22T07:25:58.779Z,18.40
2017-05-22T07:28:25.693Z,18.40
2017-05-22T07:30:52.996Z,18.40
2017-05-22T07:33:19.918Z,18.30
2017-05-22T07:35:46.823Z,18.40
2017-05-22T07:38:14.142Z,18.20
2017-05-22T07:40:41.089Z,18.10
2017-05-22T07:43:08.061Z,18.10
2017-05-22T07:45:35.377Z,18.20
2017-05-22T07:48:02.304Z,18.40
2017-05-22T07:50:29.221Z,18.60
2017-05-22T07:52:56.513Z,18.40
2017-05-22T07:55:23.427Z,18.40
2017-05-22T07:57:50.360Z,18.40
2017-05-22T08:00:17.645Z,18.40
2017-05-22T08:02:44.567Z,18.50
2017-05-22T08:05:11.500Z,18.50
2017-05-22T08:07:38.797Z,18.50
2017-05-22T08:10:05.783Z,18.60
2017-05-22T08:12:33.233Z,18.50
2017-05-22T08:15:00.498Z,18.50
2017-05-22T08:17:27.512Z,18.40
2017-05-22T08:19:54.448Z,18.20
2017-05-22T08:22:21.785Z,18.20
2017-05-22T08:24:48.704Z,18.40
2017-05-22T08:27:15.660Z,18.70
2017-05-22T08:29:43.010Z,18.90
2017-05-22T08:32:09.920Z,18.90
2017-05-22T08:34:36.828Z,18.80
2017-05-22T08:37:04.128Z,18.90
2017-05-22T08:39:31.037Z,19.00
2017-05-22T08:41:57.992Z,18.80
2017-05-22T08:44:25.266Z,18.90
2017-05-22T08:46:52.175Z,18.90
2017-05-22T08:49:19.122Z,19.10
2017-05-22T08:51:47.051Z,19.30
2017-05-22T08:54:13.993Z,19.40
2017-05-22T08:56:40.960Z,19.60
2017-05-22T08:59:08.251Z,19.60
2017-05-22T09:01:35.196Z,19.50
2017-05-22T09:04:02.118Z,19.30
2017-05-22T09:06:29.413Z,19.30
2017-05-22T09:08:56.321Z,19.40
2017-05-22T09:11:23.289Z,19.50
2017-05-22T09:13:50.743Z,19.70
2017-05-22T09:16:17.642Z,19.80
2017-05-22T09:18:44.562Z,19.40
2017-05-22T09:21:11.872Z,19.00
2017-05-22T09:23:38.860Z,18.80
2017-05-22T09:26:06.465Z,19.00
2017-05-22T09:28:33.725Z,18.90
2017-05-22T09:31:00.662Z,19.00
2017-05-22T09:33:27.596Z,19.00
2017-05-22T09:35:54.955Z,19.10
2017-05-22T09:38:21.876Z,19.40
2017-05-22T09:40:48.797Z,19.60
2017-05-22T09:43:16.118Z,19.80
2017-05-22T09:45:43.042Z,19.50
2017-05-22T09:48:09.988Z,19.40
2017-05-22T09:50:37.218Z,19.40
2017-05-22T09:53:04.161Z,19.40
2017-05-22T09:55:31.085Z,19.40
2017-05-22T09:57:58.357Z,19.50
2017-05-22T10:00:25.261Z,19.70
2017-05-22T10:02:52.171Z,19.50
2017-05-22T10:05:19.420Z,19.60
2017-05-22T10:07:46.375Z,20.10
2017-05-22T10:10:13.339Z,20.40
2017-05-22T10:12:40.547Z,20.60
2017-05-22T10:15:07.492Z,20.70
2017-05-22T10:17:34.394Z,20.60
2017-05-22T10:20:01.689Z,20.80
2017-05-22T10:22:28.593Z,20.70
2017-05-22T10:24:55.531Z,20.40
2017-05-22T10:27:22.800Z,20.30
2017-05-22T10:29:49.748Z,20.40
2017-05-22T10:32:16.738Z,20.10
2017-05-22T10:34:44.037Z,20.10
2017-05-22T10:37:10.971Z,20.40
2017-05-22T10:39:37.929Z,20.40
2017-05-22T10:42:05.294Z,20.40
2017-05-22T10:44:32.258Z,20.20
2017-05-22T10:46:59.191Z,20.20
2017-05-22T10:49:26.458Z,20.10
2017-05-22T10:51:53.379Z,19.90
2017-05-22T10:54:20.298Z,20.20
2017-05-22T10:56:47.573Z,20.10
2017-05-22T10:59:14.524Z,20.20
2017-05-22T11:01:41.467Z,20.40
2017-05-22T11:04:08.732Z,20.50
2017-05-22T11:06:35.680Z,20.50
2017-05-22T11:09:02.781Z,20.60
2017-05-22T11:11:30.030Z,20.70
2017-05-22T11:13:56.961Z,20.60
2017-05-22T11:16:23.896Z,20.40
2017-05-22T11:18:51.170Z,20.50
2017-05-22T11:21:18.103Z,20.90
2017-05-22T11:23:45.031Z,21.20
2017-05-22T11:26:12.419Z,21.40
2017-05-22T11:28:39.373Z,21.60
2017-05-22T11:31:06.305Z,21.90
2017-05-22T11:33:33.620Z,22.00
2017-05-22T11:36:00.565Z,22.00
2017-05-22T11:38:27.505Z,22.00
2017-05-22T11:40:54.876Z,22.10
2017-05-22T11:43:21.793Z,21.40
2017-05-22T11:45:48.737Z,21.30
2017-05-22T11:48:16.009Z,21.10
2017-05-22T11:50:42.933Z,21.40
2017-05-22T11:53:09.842Z,21.70
2017-05-22T11:55:37.157Z,21.70
2017-05-22T11:58:04.105Z,21.80
2017-05-22T12:00:31.051Z,21.60
2017-05-22T12:02:58.390Z,22.10
2017-05-22T12:05:25.321Z,22.60
2017-05-22T12:07:52.250Z,22.30
2017-05-22T12:10:19.519Z,22.50
2017-05-22T12:12:46.458Z,22.60
2017-05-22T12:15:13.389Z,22.70
2017-05-22T12:17:40.785Z,22.60
2017-05-22T12:20:07.800Z,22.70
2017-05-22T12:22:34.729Z,22.70
2017-05-22T12:25:02.096Z,22.80
2017-05-22T12:27:29.068Z,22.80
2017-05-22T12:29:56.006Z,22.90
2017-05-22T12:32:23.345Z,23.10
2017-05-22T12:34:50.261Z,23.00
2017-05-22T12:37:17.169Z,23.20
2017-05-22T12:39:44.481Z,23.60
2017-05-22T12:42:11.397Z,23.80
2017-05-22T12:44:38.329Z,23.40
2017-05-22T12:47:05.701Z,22.90
2017-05-22T12:49:32.612Z,23.00
2017-05-22T12:51:59.588Z,23.50
2017-05-22T12:54:26.942Z,24.10
2017-05-22T12:56:53.864Z,24.40
2017-05-22T12:59:20.785Z,24.20
2017-05-22T13:01:48.188Z,24.40
2017-05-22T13:04:15.124Z,24.50
2017-05-22T13:06:42.052Z,24.70
2017-05-22T13:09:09.298Z,25.30
2017-05-22T13:11:36.256Z,25.20
2017-05-22T13:14:03.177Z,25.00
2017-05-22T13:16:30.464Z,25.10
2017-05-22T13:18:57.396Z,25.20
2017-05-22T13:21:24.329Z,25.40
2017-05-22T13:23:51.673Z,25.50
2017-05-22T13:26:18.603Z,25.00
2017-05-22T13:28:45.570Z,24.80
2017-05-22T13:31:12.912Z,25.00
2017-05-22T13:33:39.861Z,25.10
2017-05-22T13:36:06.781Z,25.80
2017-05-22T13:38:34.164Z,26.50
2017-05-22T13:41:01.074Z,26.90
2017-05-22T13:43:28.010Z,26.80
2017-05-22T13:45:55.306Z,26.80
2017-05-22T13:48:22.222Z,27.20
2017-05-22T13:50:49.136Z,27.50
2017-05-22T13:53:16.422Z,27.90
2017-05-22T13:55:43.359Z,28.40
2017-05-22T13:58:10.326Z,29.10
2017-05-22T14:00:37.607Z,29.00
2017-05-22T14:03:04.610Z,29.20
2017-05-22T14:05:31.531Z,29.50
2017-05-22T14:08:01.589Z,29.40
2017-05-22T14:10:28.557Z,29.10
2017-05-22T14:12:55.525Z,29.50
2017-05-22T14:15:22.921Z,29.40
2017-05-22T14:17:49.851Z,28.60
2017-05-22T14:20:16.809Z,28.20
2017-05-22T14:22:44.048Z,27.60
2017-05-22T14:25:10.977Z,27.20
2017-05-22T14:27:37.928Z,27.10
2017-05-22T14:30:05.268Z,26.70
2017-05-22T14:32:32.209Z,25.70
2017-05-22T14:34:59.133Z,25.60
2017-05-22T14:37:26.448Z,25.60
2017-05-22T14:39:53.460Z,25.70
2017-05-22T14:42:20.405Z,26.70
2017-05-22T14:44:47.753Z,27.90
2017-05-22T14:47:14.654Z,28.90
2017-05-22T14:49:41.588Z,29.70
2017-05-22T14:52:08.887Z,30.20
2017-05-22T14:54:35.859Z,30.40
2017-05-22T14:57:02.803Z,30.20
2017-05-22T14:59:29.981Z,29.80
2017-05-22T15:01:57.077Z,29.90
2017-05-22T15:04:24.022Z,31.60
2017-05-22T15:06:51.371Z,33.70
2017-05-22T15:09:18.298Z,34.40
2017-05-22T15:11:45.241Z,34.70
2017-05-22T15:14:12.580Z,35.90
2017-05-22T15:16:39.528Z,35.20
2017-05-22T15:19:09.604Z,33.40
2017-05-22T15:21:36.905Z,30.50
2017-05-22T15:24:03.813Z,29.30
2017-05-22T15:26:30.752Z,29.60
2017-05-22T15:28:58.043Z,31.60
2017-05-22T15:31:24.964Z,33.90
2017-05-22T15:33:51.905Z,34.80
2017-05-22T15:36:19.400Z,34.40
2017-05-22T15:38:46.305Z,34.00
2017-05-22T15:41:13.208Z,33.90
2017-05-22T15:43:40.508Z,33.70
2017-05-22T15:46:07.462Z,33.70
2017-05-22T15:48:34.394Z,34.10
2017-05-22T15:51:01.669Z,33.10
2017-05-22T15:53:28.588Z,33.10
2017-05-22T15:55:55.501Z,32.40
2017-05-22T15:58:22.780Z,32.30
2017-05-22T16:00:49.720Z,33.10
2017-05-22T16:03:16.636Z,33.40
2017-05-22T16:05:43.929Z,32.80
2017-05-22T16:08:10.872Z,32.60
2017-05-22T16:10:37.812Z,32.80
2017-05-22T16:13:05.146Z,33.10
2017-05-22T16:15:32.076Z,33.50
2017-05-22T16:17:59.016Z,34.30
2017-05-22T16:20:26.403Z,33.70
2017-05-22T16:22:53.330Z,32.80
2017-05-22T16:25:20.241Z,32.40
2017-05-22T16:27:48.164Z,31.70
2017-05-22T16:30:15.090Z,31.40
2017-05-22T16:32:41.992Z,31.90
2017-05-22T16:35:09.292Z,31.90
2017-05-22T16:37:36.210Z,32.00
2017-05-22T16:40:03.135Z,31.70
2017-05-22T16:42:30.418Z,31.30
2017-05-22T16:44:57.345Z,31.20
2017-05-22T16:47:24.250Z,30.80
2017-05-22T16:49:51.447Z,30.80
2017-05-22T16:52:18.736Z,30.40
2017-05-22T16:54:45.675Z,30.70
2017-05-22T16:57:13.005Z,30.30
2017-05-22T16:59:39.928Z,30.30
2017-05-22T17:02:06.863Z,30.20
2017-05-22T17:04:34.114Z,30.00
2017-05-22T17:07:01.048Z,30.00
2017-05-22T17:09:27.967Z,30.20
2017-05-22T17:11:55.255Z,30.60
2017-05-22T17:14:22.164Z,30.70
2017-05-22T17:16:49.077Z,30.70
2017-05-22T17:19:16.397Z,30.40
2017-05-22T17:21:43.306Z,30.80
2017-05-22T17:24:10.256Z,31.30
2017-05-22T17:26:37.525Z,31.10
2017-05-22T17:29:04.444Z,31.30
2017-05-22T17:31:31.406Z,30.90
2017-05-22T17:33:58.784Z,31.20
2017-05-22T17:36:25.711Z,30.90
2017-05-22T17:38:52.628Z,30.90
2017-05-22T17:41:19.897Z,30.90
2017-05-22T17:43:46.848Z,31.10
2017-05-22T17:46:13.757Z,31.70
2017-05-22T17:48:41.137Z,31.70
2017-05-22T17:51:08.040Z,31.10
2017-05-22T17:53:35.013Z,30.50
2017-05-22T17:56:02.413Z,30.30
2017-05-22T17:58:29.365Z,30.50
2017-05-22T18:00:56.286Z,30.30
2017-05-22T18:03:23.628Z,30.60
2017-05-22T18:05:50.579Z,31.00
2017-05-22T18:08:17.526Z,30.50
2017-05-22T18:10:44.841Z,30.40
2017-05-22T18:13:11.777Z,30.80
2017-05-22T18:15:38.700Z,30.60
2017-05-22T18:18:05.981Z,30.40
2017-05-22T18:20:32.902Z,30.00
2017-05-22T18:22:59.841Z,29.50
2017-05-22T18:25:27.333Z,29.50
2017-05-22T18:27:54.272Z,29.00
2017-05-22T18:30:21.228Z,28.80
2017-05-22T18:32:48.488Z,28.60
2017-05-22T18:35:15.432Z,28.70
2017-05-22T18:37:42.341Z,29.00
2017-05-22T18:40:09.808Z,29.50
2017-05-22T18:42:36.737Z,29.20
2017-05-22T18:45:03.645Z,29.20
2017-05-22T18:47:30.957Z,29.20
2017-05-22T18:49:57.994Z,28.80
2017-05-22T18:52:24.914Z,28.10
2017-05-22T18:54:52.302Z,27.80
2017-05-22T18:57:19.228Z,27.30
2017-05-22T18:59:46.272Z,27.00
2017-05-22T19:02:13.629Z,27.10
2017-05-22T19:04:40.766Z,26.50
2017-05-22T19:07:07.768Z,26.10
2017-05-22T19:09:35.288Z,25.60
2017-05-22T19:12:02.216Z,25.40
2017-05-22T19:14:29.136Z,25.20
2017-05-22T19:16:56.512Z,25.10
2017-05-22T19:19:24.423Z,25.20
2017-05-22T19:21:51.345Z,24.70
2017-05-22T19:24:18.704Z,24.70
2017-05-22T19:26:45.616Z,24.20
2017-05-22T19:29:12.575Z,24.10
2017-05-22T19:31:39.828Z,23.90
2017-05-22T19:34:06.717Z,23.90
2017-05-22T19:36:33.679Z,23.60
2017-05-22T19:39:00.984Z,23.70
2017-05-22T19:41:27.921Z,23.60
2017-05-22T19:43:54.860Z,23.30
2017-05-22T19:46:22.251Z,23.50
2017-05-22T19:48:49.184Z,23.60
2017-05-22T19:51:16.179Z,23.20
2017-05-22T19:53:43.469Z,23.00
2017-05-22T19:56:10.373Z,23.10
2017-05-22T19:58:37.294Z,23.40
2017-05-22T20:01:04.608Z,23.10
2017-05-22T20:03:31.501Z,22.90
2017-05-22T20:05:58.463Z,22.80
2017-05-22T20:08:25.895Z,22.70
2017-05-22T20:10:52.863Z,22.60
2017-05-22T20:13:19.771Z,22.80
2017-05-22T20:15:47.109Z,22.60
2017-05-22T20:18:14.074Z,22.50
2017-05-22T20:20:40.994Z,22.30
2017-05-22T20:23:08.217Z,22.20
2017-05-22T20:25:35.134Z,22.40
2017-05-22T20:28:02.068Z,22.30
2017-05-22T20:30:29.408Z,22.10
2017-05-22T20:32:56.332Z,22.10
2017-05-22T20:35:23.233Z,21.90
2017-05-22T20:37:50.503Z,21.80
2017-05-22T20:40:17.462Z,21.70
2017-05-22T20:42:44.398Z,21.60
2017-05-22T20:45:11.779Z,21.80
2017-05-22T20:47:38.793Z,21.60
2017-05-22T20:50:05.766Z,21.60
2017-05-22T20:52:33.163Z,21.40
2017-05-22T20:55:00.073Z,21.30
2017-05-22T20:57:26.972Z,21.30
2017-05-22T20:59:54.382Z,21.30
2017-05-22T21:02:21.313Z,21.30
2017-05-22T21:04:48.249Z,21.30
2017-05-22T21:07:15.627Z,21.00
2017-05-22T21:09:42.590Z,21.00
2017-05-22T21:12:09.525Z,21.20
2017-05-22T21:14:36.893Z,21.50
2017-05-22T21:17:03.831Z,21.00
2017-05-22T21:19:30.712Z,21.10
2017-05-22T21:21:58.016Z,20.80
2017-05-22T21:24:24.940Z,20.70
2017-05-22T21:26:51.872Z,20.30
2017-05-22T21:29:19.263Z,20.40
2017-05-22T21:31:46.173Z,20.50
2017-05-22T21:34:13.086Z,20.30
2017-05-22T21:36:40.415Z,20.10
2017-05-22T21:39:07.301Z,20.10
2017-05-22T21:41:34.204Z,20.20
2017-05-22T21:44:01.528Z,19.90
2017-05-22T21:46:28.440Z,19.70
2017-05-22T21:48:55.357Z,19.50
2017-05-22T21:51:23.456Z,19.60
2017-05-22T21:53:51.011Z,19.70
2017-05-22T21:56:17.913Z,19.70
2017-05-22T21:58:45.177Z,19.80
2017-05-22T22:01:12.084Z,19.70
2017-05-22T22:03:38.986Z,19.60
2017-05-22T22:06:06.317Z,19.60
2017-05-22T22:08:33.295Z,19.50
2017-05-22T22:11:00.206Z,19.50
2017-05-22T22:13:27.559Z,19.60
2017-05-22T22:15:54.474Z,19.50
2017-05-22T22:18:21.453Z,19.20
2017-05-22T22:20:48.807Z,18.80
2017-05-22T22:23:15.744Z,18.80
2017-05-22T22:25:42.645Z,18.60
2017-05-22T22:28:09.841Z,18.80
2017-05-22T22:30:36.869Z,18.60
2017-05-22T22:33:03.816Z,18.90
2017-05-22T22:35:31.096Z,18.90
2017-05-22T22:37:58.023Z,18.70
2017-05-22T22:40:24.948Z,18.40
2017-05-22T22:42:52.220Z,18.40
2017-05-22T22:45:19.140Z,18.30
2017-05-22T22:47:46.064Z,18.20
2017-05-22T22:50:13.325Z,18.00
2017-05-22T22:52:40.229Z,17.80
2017-05-22T22:55:07.172Z,18.20
2017-05-22T22:57:34.370Z,18.10
2017-05-22T23:00:01.280Z,18.00
2017-05-22T23:02:28.184Z,18.20
2017-05-22T23:04:55.423Z,18.00
2017-05-22T23:07:22.343Z,17.50
2017-05-22T23:09:49.264Z,17.40
2017-05-22T23:12:16.712Z,17.10
2017-05-22T23:14:43.636Z,17.00
2017-05-22T23:17:10.557Z,17.10
2017-05-22T23:19:37.842Z,17.10
2017-05-22T23:22:04.744Z,17.40
2017-05-22T23:24:31.632Z,17.30
2017-05-22T23:26:58.885Z,17.00
2017-05-22T23:29:25.781Z,17.20
2017-05-22T23:31:52.688Z,17.10
2017-05-22T23:34:19.972Z,16.80
2017-05-22T23:36:46.908Z,16.90
2017-05-22T23:39:13.837Z,17.10
2017-05-22T23:41:41.093Z,17.20
2017-05-22T23:44:08.018Z,17.10
2017-05-22T23:46:34.916Z,17.40
2017-05-22T23:49:02.215Z,17.40
2017-05-22T23:51:29.153Z,17.50
2017-05-22T23:53:56.069Z,17.40
2017-05-22T23:56:23.364Z,17.20
2017-05-22T23:58:50.300Z,17.40
